createdAt,value
2019-02-26T00:01:09.845Z,99.90
2019-02-26T00:02:17.395Z,99.90
2019-02-26T00:03:26.269Z,99.90
2019-02-26T00:04:36.931Z,99.90
2019-02-26T00:05:43.199Z,99.90
2019-02-26T00:06:49.253Z,99.90
2019-02-26T00:07:57.860Z,99.90
2019-02-26T00:09:07.121Z,99.90
2019-02-26T00:10:13.623Z,99.90
2019-02-26T00:11:19.905Z,99.90
2019-02-26T00:12:26.358Z,99.90
2019-02-26T00:13:34.629Z,99.90
2019-02-26T00:14:43.076Z,99.90
2019-02-26T00:15:49.176Z,99.90
2019-02-26T00:16:55.353Z,99.90
2019-02-26T00:18:01.611Z,99.90
2019-02-26T00:19:09.616Z,99.90
2019-02-26T00:20:17.556Z,99.90
2019-02-26T00:21:24.418Z,99.90
2019-02-26T00:22:32.320Z,99.90
2019-02-26T00:23:39.334Z,99.90
2019-02-26T00:24:46.628Z,99.90
2019-02-26T00:25:53.006Z,99.90
2019-02-26T00:27:01.484Z,99.90
2019-02-26T00:28:07.175Z,99.90
2019-02-26T00:29:13.407Z,99.90
2019-02-26T00:30:19.596Z,99.90
2019-02-26T00:31:27.851Z,99.90
2019-02-26T00:32:33.915Z,99.90
2019-02-26T00:33:40.707Z,99.90
2019-02-26T00:34:46.768Z,99.90
2019-02-26T00:35:53.027Z,99.90
2019-02-26T00:37:00.025Z,99.90
2019-02-26T00:38:08.883Z,99.90
2019-02-26T00:39:14.557Z,99.90
2019-02-26T00:40:20.672Z,99.90
2019-02-26T00:41:28.738Z,99.90
2019-02-26T00:42:36.078Z,99.90
2019-02-26T00:43:42.313Z,99.90
2019-02-26T00:44:51.360Z,99.90
2019-02-26T00:45:58.288Z,99.90
2019-02-26T00:47:04.962Z,99.90
2019-02-26T00:48:11.907Z,99.90
2019-02-26T00:49:19.107Z,99.90
2019-02-26T00:50:25.358Z,99.90
2019-02-26T00:51:31.543Z,99.90
2019-02-26T00:52:39.176Z,99.90
2019-02-26T00:53:48.864Z,99.90
2019-02-26T00:54:57.604Z,99.90
2019-02-26T00:56:03.269Z,99.90
2019-02-26T00:57:11.552Z,99.90
2019-02-26T00:58:18.176Z,99.90
2019-02-26T00:59:24.304Z,99.90
2019-02-26T01:00:30.860Z,99.90
2019-02-26T01:01:38.228Z,99.90
2019-02-26T01:02:44.931Z,99.90
2019-02-26T01:03:51.780Z,99.90
2019-02-26T01:04:58.032Z,99.90
2019-02-26T01:06:05.806Z,99.90
2019-02-26T01:07:12.987Z,99.90
2019-02-26T01:08:19.849Z,99.90
2019-02-26T01:09:27.354Z,99.90
2019-02-26T01:10:34.649Z,99.90
2019-02-26T01:11:42.962Z,99.90
2019-02-26T01:12:49.674Z,99.90
2019-02-26T01:13:57.341Z,99.90
2019-02-26T01:15:04.970Z,99.90
2019-02-26T01:16:11.616Z,99.90
2019-02-26T01:17:18.808Z,99.90
2019-02-26T01:18:26.699Z,99.90
2019-02-26T01:19:34.172Z,99.90
2019-02-26T01:20:41.010Z,99.90
2019-02-26T01:21:46.985Z,99.90
2019-02-26T01:22:53.036Z,99.90
2019-02-26T01:24:01.609Z,99.90
2019-02-26T01:25:07.361Z,99.90
2019-02-26T01:26:13.543Z,99.90
2019-02-26T01:27:19.692Z,99.90
2019-02-26T01:28:27.052Z,99.90
2019-02-26T01:29:33.828Z,99.90
2019-02-26T01:30:40.077Z,99.90
2019-02-26T01:31:46.148Z,99.90
2019-02-26T01:32:52.355Z,99.90
2019-02-26T01:33:58.655Z,99.90
2019-02-26T01:35:05.925Z,99.90
2019-02-26T01:36:14.009Z,99.90
2019-02-26T01:37:20.917Z,99.90
2019-02-26T01:38:27.038Z,99.90
2019-02-26T01:39:33.202Z,99.90
2019-02-26T01:40:41.817Z,99.90
2019-02-26T01:41:50.393Z,99.90
2019-02-26T01:42:57.923Z,99.90
2019-02-26T01:44:05.021Z,99.90
2019-02-26T01:45:11.967Z,99.90
2019-02-26T01:46:18.742Z,99.90
2019-02-26T01:47:26.271Z,99.90
2019-02-26T01:48:34.388Z,99.90
2019-02-26T01:49:41.855Z,99.90
2019-02-26T01:50:48.608Z,99.90
2019-02-26T01:51:54.757Z,99.90
2019-02-26T01:53:01.130Z,99.90
2019-02-26T01:54:08.211Z,99.90
2019-02-26T01:55:16.167Z,99.90
2019-02-26T01:56:22.768Z,99.90
2019-02-26T01:57:28.628Z,99.90
2019-02-26T01:58:34.441Z,99.90
2019-02-26T01:59:40.517Z,99.90
2019-02-26T02:00:46.807Z,99.90
2019-02-26T02:01:53.757Z,99.90
2019-02-26T02:03:00.656Z,99.90
2019-02-26T02:04:08.763Z,99.90
2019-02-26T02:05:14.686Z,99.90
2019-02-26T02:06:20.769Z,99.90
2019-02-26T02:07:28.728Z,99.90
2019-02-26T02:08:34.909Z,99.90
2019-02-26T02:09:40.654Z,99.90
2019-02-26T02:10:46.426Z,99.90
2019-02-26T02:11:52.546Z,99.90
2019-02-26T02:13:00.276Z,99.90
2019-02-26T02:14:08.138Z,99.90
2019-02-26T02:15:15.760Z,99.90
2019-02-26T02:16:24.198Z,99.90
2019-02-26T02:17:33.276Z,99.90
2019-02-26T02:18:43.654Z,99.90
2019-02-26T02:19:48.086Z,99.90
2019-02-26T02:20:54.246Z,99.90
2019-02-26T02:22:00.228Z,99.90
2019-02-26T02:23:07.127Z,99.90
2019-02-26T02:24:15.563Z,99.90
2019-02-26T02:25:22.214Z,99.90
2019-02-26T02:26:28.398Z,99.90
2019-02-26T02:27:34.757Z,99.90
2019-02-26T02:28:40.968Z,99.90
2019-02-26T02:29:48.816Z,99.90
2019-02-26T02:30:55.223Z,99.90
2019-02-26T02:32:04.434Z,99.90
2019-02-26T02:33:10.483Z,99.90
2019-02-26T02:34:16.666Z,99.90
2019-02-26T02:35:22.816Z,99.90
2019-02-26T02:36:30.069Z,99.90
2019-02-26T02:37:36.255Z,99.90
2019-02-26T02:38:42.444Z,99.90
2019-02-26T02:39:48.526Z,99.90
2019-02-26T02:40:55.021Z,99.90
2019-02-26T02:42:01.217Z,99.90
2019-02-26T02:43:07.959Z,99.90
2019-02-26T02:44:17.661Z,99.90
2019-02-26T02:45:24.345Z,99.90
2019-02-26T02:46:30.552Z,99.90
2019-02-26T02:47:38.694Z,99.90
2019-02-26T02:48:45.426Z,99.90
2019-02-26T02:49:51.697Z,99.90
2019-02-26T02:50:59.609Z,99.90
2019-02-26T02:52:07.224Z,99.90
2019-02-26T02:53:13.796Z,99.90
2019-02-26T02:54:20.965Z,99.90
2019-02-26T02:55:27.436Z,99.90
2019-02-26T02:56:36.001Z,99.90
2019-02-26T02:57:41.374Z,99.90
2019-02-26T02:58:49.499Z,99.90
2019-02-26T02:59:56.849Z,99.90
2019-02-26T03:01:03.305Z,99.90
2019-02-26T03:02:12.023Z,99.90
2019-02-26T03:03:17.174Z,99.90
2019-02-26T03:04:26.044Z,99.90
2019-02-26T03:05:32.105Z,99.90
2019-02-26T03:06:38.745Z,99.90
2019-02-26T03:07:48.149Z,99.90
2019-02-26T03:08:53.492Z,99.90
2019-02-26T03:10:03.924Z,99.90
2019-02-26T03:11:09.298Z,99.90
2019-02-26T03:12:15.353Z,99.90
2019-02-26T03:13:24.872Z,99.90
2019-02-26T03:14:32.430Z,99.90
2019-02-26T03:15:37.193Z,99.90
2019-02-26T03:16:45.589Z,99.90
2019-02-26T03:17:51.745Z,99.90
2019-02-26T03:18:58.120Z,99.90
2019-02-26T03:20:06.954Z,99.90
2019-02-26T03:21:12.536Z,99.90
2019-02-26T03:22:21.449Z,99.90
2019-02-26T03:23:26.557Z,99.90
2019-02-26T03:24:33.848Z,99.90
2019-02-26T03:25:41.481Z,99.90
2019-02-26T03:26:48.230Z,99.90
2019-02-26T03:27:54.365Z,99.90
2019-02-26T03:29:00.242Z,99.90
2019-02-26T03:30:07.574Z,99.90
2019-02-26T03:31:13.706Z,99.90
2019-02-26T03:32:20.819Z,99.90
2019-02-26T03:33:27.084Z,99.90
2019-02-26T03:34:33.346Z,99.90
2019-02-26T03:35:39.569Z,99.90
2019-02-26T03:36:45.871Z,99.90
2019-02-26T03:37:54.882Z,99.90
2019-02-26T03:39:02.653Z,99.90
2019-02-26T03:40:10.288Z,99.90
2019-02-26T03:41:19.577Z,99.90
2019-02-26T03:42:24.407Z,99.90
2019-02-26T03:43:31.399Z,99.90
2019-02-26T03:44:38.597Z,99.90
2019-02-26T03:45:47.356Z,99.90
2019-02-26T03:46:52.756Z,99.90
2019-02-26T03:47:59.020Z,99.90
2019-02-26T03:49:05.233Z,99.90
2019-02-26T03:50:13.285Z,99.90
2019-02-26T03:51:19.313Z,99.90
2019-02-26T03:52:25.654Z,99.90
2019-02-26T03:53:34.258Z,99.90
2019-02-26T03:54:40.324Z,99.90
2019-02-26T03:55:48.126Z,99.90
2019-02-26T03:56:54.366Z,99.90
2019-02-26T03:58:02.145Z,99.90
2019-02-26T03:59:11.128Z,99.90
2019-02-26T04:00:19.559Z,99.90
2019-02-26T04:01:24.629Z,99.90
2019-02-26T04:02:30.662Z,99.90
2019-02-26T04:03:37.563Z,99.90
2019-02-26T04:04:48.802Z,99.90
2019-02-26T04:05:57.079Z,99.90
2019-02-26T04:07:04.914Z,99.90
2019-02-26T04:08:11.407Z,99.90
2019-02-26T04:09:19.605Z,99.90
2019-02-26T04:10:25.289Z,99.90
2019-02-26T04:11:32.686Z,99.90
2019-02-26T04:12:41.961Z,99.90
2019-02-26T04:13:48.683Z,99.90
2019-02-26T04:14:54.034Z,99.90
2019-02-26T04:16:03.851Z,99.90
2019-02-26T04:17:09.023Z,99.90
2019-02-26T04:18:15.237Z,99.90
2019-02-26T04:19:26.147Z,99.90
2019-02-26T04:20:29.440Z,99.90
2019-02-26T04:22:13.131Z,99.90
2019-02-26T04:23:21.863Z,99.90
2019-02-26T04:24:29.908Z,99.90
2019-02-26T04:25:43.314Z,99.90
2019-02-26T04:27:33.494Z,99.90
2019-02-26T04:29:06.451Z,99.90
2019-02-26T04:30:39.333Z,99.90
2019-02-26T04:32:23.260Z,99.90
2019-02-26T04:34:08.487Z,99.90
2019-02-26T04:35:44.896Z,99.90
2019-02-26T04:37:32.761Z,99.90
2019-02-26T04:39:36.748Z,99.90
2019-02-26T04:41:15.884Z,99.90
2019-02-26T04:42:47.758Z,99.90
2019-02-26T04:44:33.902Z,99.90
2019-02-26T04:45:57.301Z,99.90
2019-02-26T04:47:30.798Z,99.90
2019-02-26T04:48:38.436Z,99.90
2019-02-26T04:49:44.496Z,99.90
2019-02-26T04:50:50.754Z,99.90
2019-02-26T04:51:56.936Z,99.90
2019-02-26T04:53:05.814Z,99.90
2019-02-26T04:54:10.916Z,99.90
2019-02-26T04:55:16.958Z,99.90
2019-02-26T04:56:23.035Z,99.90
2019-02-26T04:57:29.024Z,99.90
2019-02-26T04:58:37.205Z,99.90
2019-02-26T04:59:43.829Z,99.90
2019-02-26T05:00:51.358Z,99.90
2019-02-26T05:01:57.569Z,99.90
2019-02-26T05:03:05.218Z,99.90
2019-02-26T05:04:11.728Z,99.90
2019-02-26T05:05:17.877Z,99.90
2019-02-26T05:06:24.225Z,99.90
2019-02-26T05:07:32.782Z,99.90
2019-02-26T05:08:40.130Z,99.90
2019-02-26T05:09:47.309Z,99.90
2019-02-26T05:10:55.026Z,99.90
2019-02-26T05:12:01.331Z,99.90
2019-02-26T05:13:09.691Z,99.90
2019-02-26T05:14:20.799Z,99.90
2019-02-26T05:15:26.246Z,99.90
2019-02-26T05:16:32.645Z,99.90
2019-02-26T05:17:39.039Z,99.90
2019-02-26T05:18:47.048Z,99.90
2019-02-26T05:19:52.544Z,99.90
2019-02-26T05:20:59.751Z,99.90
2019-02-26T05:22:07.160Z,99.90
2019-02-26T05:23:13.386Z,99.90
2019-02-26T05:24:21.924Z,99.90
2019-02-26T05:25:28.673Z,99.90
2019-02-26T05:26:35.017Z,99.90
2019-02-26T05:27:42.805Z,99.90
2019-02-26T05:28:51.555Z,99.90
2019-02-26T05:29:57.868Z,99.90
2019-02-26T05:31:06.423Z,99.90
2019-02-26T05:32:11.905Z,99.90
2019-02-26T05:33:18.500Z,99.90
2019-02-26T05:34:26.035Z,99.90
2019-02-26T05:35:32.356Z,99.90
2019-02-26T05:36:40.289Z,99.90
2019-02-26T05:37:46.254Z,99.90
2019-02-26T05:38:54.634Z,99.90
2019-02-26T05:40:00.381Z,99.90
2019-02-26T05:41:06.576Z,99.90
2019-02-26T05:42:12.354Z,99.90
2019-02-26T05:43:20.245Z,99.90
2019-02-26T05:44:26.196Z,99.90
2019-02-26T05:45:34.997Z,99.90
2019-02-26T05:46:40.080Z,99.90
2019-02-26T05:47:48.878Z,99.90
2019-02-26T05:48:54.116Z,99.90
2019-02-26T05:50:02.712Z,99.90
2019-02-26T05:51:09.341Z,99.90
2019-02-26T05:52:15.832Z,99.90
2019-02-26T05:53:21.706Z,99.90
2019-02-26T05:54:27.899Z,99.90
2019-02-26T05:55:34.149Z,99.90
2019-02-26T05:56:41.289Z,99.90
2019-02-26T05:57:48.256Z,99.90
2019-02-26T05:58:54.427Z,99.90
2019-02-26T06:00:00.545Z,99.90
2019-02-26T06:01:06.686Z,99.90
2019-02-26T06:02:14.188Z,99.90
2019-02-26T06:03:20.910Z,99.90
2019-02-26T06:04:27.285Z,99.90
2019-02-26T06:05:32.960Z,99.90
2019-02-26T06:06:39.156Z,99.90
2019-02-26T06:07:45.543Z,99.90
2019-02-26T06:08:54.355Z,99.90
2019-02-26T06:09:59.946Z,99.90
2019-02-26T06:11:06.370Z,99.90
2019-02-26T06:12:12.517Z,99.90
2019-02-26T06:13:18.832Z,99.90
2019-02-26T06:14:27.424Z,99.90
2019-02-26T06:15:34.190Z,99.90
2019-02-26T06:16:40.376Z,99.90
2019-02-26T06:17:48.162Z,99.90
2019-02-26T06:18:54.455Z,99.90
2019-02-26T06:20:11.134Z,99.90
2019-02-26T06:21:20.453Z,99.90
2019-02-26T06:22:27.186Z,99.90
2019-02-26T06:23:34.464Z,99.90
2019-02-26T06:24:40.755Z,99.90
2019-02-26T06:25:46.897Z,99.90
2019-02-26T06:26:54.261Z,99.90
2019-02-26T06:28:04.528Z,99.90
2019-02-26T06:29:07.943Z,99.90
2019-02-26T06:30:14.460Z,99.90
2019-02-26T06:31:22.085Z,99.90
2019-02-26T06:32:32.205Z,99.90
2019-02-26T06:33:38.346Z,99.90
2019-02-26T06:34:44.056Z,99.90
2019-02-26T06:35:50.150Z,99.90
2019-02-26T06:37:13.832Z,99.90
2019-02-26T06:38:21.099Z,99.90
2019-02-26T06:39:29.184Z,99.90
2019-02-26T06:40:36.961Z,99.90
2019-02-26T06:41:44.353Z,99.90
2019-02-26T06:42:50.648Z,99.90
2019-02-26T06:43:57.010Z,99.90
2019-02-26T06:45:04.040Z,99.90
2019-02-26T06:46:12.275Z,99.90
2019-02-26T06:47:18.720Z,99.90
2019-02-26T06:48:27.531Z,99.90
2019-02-26T06:49:32.805Z,99.90
2019-02-26T06:50:41.065Z,99.90
2019-02-26T06:51:47.462Z,99.90
2019-02-26T06:52:54.658Z,99.90
2019-02-26T06:54:01.163Z,99.90
2019-02-26T06:55:08.704Z,99.90
2019-02-26T06:56:16.029Z,99.90
2019-02-26T06:57:22.740Z,99.90
2019-02-26T06:58:29.697Z,99.90
2019-02-26T06:59:36.869Z,99.90
2019-02-26T07:00:43.702Z,99.90
2019-02-26T07:01:50.160Z,99.90
2019-02-26T07:02:56.413Z,99.90
2019-02-26T07:04:02.735Z,99.90
2019-02-26T07:05:11.080Z,99.90
2019-02-26T07:06:22.769Z,99.90
2019-02-26T07:07:27.107Z,99.90
2019-02-26T07:08:33.356Z,99.90
2019-02-26T07:09:41.458Z,99.90
2019-02-26T07:10:48.207Z,99.90
2019-02-26T07:11:54.337Z,99.90
2019-02-26T07:13:02.060Z,99.90
2019-02-26T07:14:10.222Z,99.90
2019-02-26T07:15:16.372Z,99.90
2019-02-26T07:16:23.557Z,99.90
2019-02-26T07:17:33.743Z,99.90
2019-02-26T07:18:37.765Z,99.90
2019-02-26T07:19:43.935Z,99.90
2019-02-26T07:20:52.601Z,99.90
2019-02-26T07:21:57.385Z,99.90
2019-02-26T07:23:05.667Z,99.90
2019-02-26T07:24:11.317Z,99.90
2019-02-26T07:25:18.622Z,99.90
2019-02-26T07:26:24.876Z,99.90
2019-02-26T07:27:32.061Z,99.90
2019-02-26T07:28:39.705Z,99.90
2019-02-26T07:29:47.954Z,99.90
2019-02-26T07:30:54.433Z,99.90
2019-02-26T07:32:00.710Z,99.90
2019-02-26T07:33:08.040Z,99.90
2019-02-26T07:34:15.652Z,99.90
2019-02-26T07:35:22.330Z,99.90
2019-02-26T07:36:28.638Z,99.90
2019-02-26T07:37:37.544Z,99.90
2019-02-26T07:38:44.638Z,99.90
2019-02-26T07:39:51.557Z,99.90
2019-02-26T07:40:59.566Z,98.30
2019-02-26T07:42:07.415Z,96.70
2019-02-26T07:43:15.399Z,96.80
2019-02-26T07:44:23.425Z,97.10
2019-02-26T07:45:29.813Z,97.30
2019-02-26T07:46:38.557Z,98.10
2019-02-26T07:47:45.501Z,99.00
2019-02-26T07:48:53.889Z,99.60
2019-02-26T07:50:01.755Z,99.90
2019-02-26T07:51:07.302Z,99.90
2019-02-26T07:52:13.462Z,99.90
2019-02-26T07:53:22.163Z,99.90
2019-02-26T07:54:29.079Z,99.90
2019-02-26T07:55:35.989Z,99.90
2019-02-26T07:56:43.296Z,99.90
2019-02-26T07:57:51.217Z,99.80
2019-02-26T07:59:01.301Z,99.90
2019-02-26T08:00:05.975Z,99.90
2019-02-26T08:01:12.516Z,99.90
2019-02-26T08:02:18.737Z,99.90
2019-02-26T08:03:26.850Z,99.70
2019-02-26T08:04:34.491Z,99.30
2019-02-26T08:05:40.287Z,99.00
2019-02-26T08:06:46.332Z,98.70
2019-02-26T08:07:55.819Z,99.00
2019-02-26T08:09:00.094Z,99.20
2019-02-26T08:10:09.970Z,99.00
2019-02-26T08:11:16.251Z,98.90
2019-02-26T08:12:22.402Z,98.80
2019-02-26T08:13:29.700Z,98.90
2019-02-26T08:14:41.082Z,99.00
2019-02-26T08:15:47.573Z,99.20
2019-02-26T08:16:56.125Z,99.40
2019-02-26T08:18:03.466Z,99.70
2019-02-26T08:19:09.444Z,99.70
2019-02-26T08:20:16.310Z,99.70
2019-02-26T08:21:24.739Z,99.80
2019-02-26T08:22:32.360Z,99.80
2019-02-26T08:23:38.007Z,99.60
2019-02-26T08:24:46.092Z,99.20
2019-02-26T08:25:52.365Z,98.50
2019-02-26T08:27:01.035Z,97.80
2019-02-26T08:28:07.362Z,97.60
2019-02-26T08:29:13.493Z,97.80
2019-02-26T08:30:21.408Z,98.30
2019-02-26T08:31:28.038Z,98.40
2019-02-26T08:32:34.180Z,98.80
2019-02-26T08:33:40.162Z,98.80
2019-02-26T08:34:46.296Z,98.80
2019-02-26T08:35:55.543Z,98.70
2019-02-26T08:37:00.101Z,98.50
2019-02-26T08:38:06.680Z,98.70
2019-02-26T08:39:15.619Z,98.30
2019-02-26T08:40:20.548Z,98.10
2019-02-26T08:41:26.616Z,98.80
2019-02-26T08:42:32.820Z,98.40
2019-02-26T08:43:42.173Z,98.20
2019-02-26T08:44:48.672Z,98.20
2019-02-26T08:45:54.686Z,98.20
2019-02-26T08:47:00.983Z,98.00
2019-02-26T08:48:07.606Z,97.90
2019-02-26T08:49:15.543Z,97.30
2019-02-26T08:50:21.107Z,97.40
2019-02-26T08:51:27.342Z,97.40
2019-02-26T08:52:33.597Z,97.20
2019-02-26T08:53:39.735Z,97.30
2019-02-26T08:54:45.878Z,96.50
2019-02-26T08:55:53.632Z,95.70
2019-02-26T08:56:59.978Z,95.10
2019-02-26T08:58:07.759Z,94.80
2019-02-26T08:59:15.598Z,94.90
2019-02-26T09:00:21.726Z,94.40
2019-02-26T09:01:27.714Z,93.40
2019-02-26T09:02:33.812Z,93.40
2019-02-26T09:03:40.953Z,93.30
2019-02-26T09:04:47.803Z,93.60
2019-02-26T09:05:56.134Z,94.30
2019-02-26T09:07:02.116Z,94.70
2019-02-26T09:08:10.877Z,95.10
2019-02-26T09:09:16.455Z,95.20
2019-02-26T09:10:23.376Z,95.30
2019-02-26T09:11:31.828Z,95.60
2019-02-26T09:12:39.009Z,95.80
2019-02-26T09:13:45.406Z,96.10
2019-02-26T09:14:51.500Z,96.00
2019-02-26T09:16:00.106Z,95.80
2019-02-26T09:17:05.555Z,95.60
2019-02-26T09:18:11.979Z,95.90
2019-02-26T09:19:18.452Z,95.90
2019-02-26T09:20:24.726Z,95.90
2019-02-26T09:21:34.743Z,95.90
2019-02-26T09:22:40.577Z,95.80
2019-02-26T09:23:49.892Z,95.60
2019-02-26T09:24:56.923Z,95.70
2019-02-26T09:26:05.148Z,95.80
2019-02-26T09:27:11.857Z,95.60
2019-02-26T09:28:17.928Z,95.90
2019-02-26T09:29:24.193Z,95.90
2019-02-26T09:30:33.423Z,96.00
2019-02-26T09:31:39.448Z,96.00
2019-02-26T09:32:45.756Z,95.60
2019-02-26T09:33:52.054Z,95.70
2019-02-26T09:34:59.284Z,95.90
2019-02-26T09:36:10.523Z,95.60
2019-02-26T09:37:14.756Z,95.20
2019-02-26T09:38:22.968Z,94.90
2019-02-26T09:39:29.462Z,94.80
2019-02-26T09:40:36.432Z,95.00
2019-02-26T09:41:45.371Z,95.10
2019-02-26T09:42:52.371Z,95.00
2019-02-26T09:43:59.362Z,94.80
2019-02-26T09:45:07.126Z,94.90
2019-02-26T09:46:16.353Z,95.10
2019-02-26T09:47:30.981Z,94.90
2019-02-26T09:48:38.249Z,94.40
2019-02-26T09:49:47.805Z,93.90
2019-02-26T09:50:53.872Z,93.90
2019-02-26T09:52:01.547Z,93.30
2019-02-26T09:53:07.851Z,92.40
2019-02-26T09:54:15.295Z,91.90
2019-02-26T09:55:21.751Z,91.60
2019-02-26T09:56:28.117Z,92.10
2019-02-26T09:57:34.357Z,92.30
2019-02-26T09:58:45.701Z,92.40
2019-02-26T09:59:54.588Z,92.50
2019-02-26T10:01:00.505Z,92.90
2019-02-26T10:02:07.996Z,93.20
2019-02-26T10:03:15.090Z,92.60
2019-02-26T10:04:22.116Z,92.00
2019-02-26T10:05:28.923Z,90.80
2019-02-26T10:06:37.358Z,87.40
2019-02-26T10:07:43.023Z,84.30
2019-02-26T10:08:51.350Z,83.70
2019-02-26T10:09:57.178Z,83.00
2019-02-26T10:11:04.902Z,82.20
2019-02-26T10:12:13.477Z,82.10
2019-02-26T10:13:21.079Z,80.90
2019-02-26T10:14:28.661Z,80.20
2019-02-26T10:15:35.456Z,78.70
2019-02-26T10:16:42.168Z,76.90
2019-02-26T10:17:48.067Z,78.00
2019-02-26T10:18:54.925Z,79.70
2019-02-26T10:20:04.421Z,80.20
2019-02-26T10:21:12.046Z,81.70
2019-02-26T10:22:17.774Z,82.20
2019-02-26T10:23:24.121Z,83.90
2019-02-26T10:24:32.874Z,84.90
2019-02-26T10:25:39.436Z,84.70
2019-02-26T10:26:45.407Z,84.70
2019-02-26T10:27:51.641Z,85.70
2019-02-26T10:29:03.877Z,86.70
2019-02-26T10:30:09.922Z,87.70
2019-02-26T10:31:13.731Z,88.50
2019-02-26T10:32:19.879Z,89.30
2019-02-26T10:33:27.816Z,89.70
2019-02-26T10:34:34.046Z,90.00
2019-02-26T10:35:44.312Z,89.00
2019-02-26T10:36:51.283Z,90.00
2019-02-26T10:37:57.095Z,90.00
2019-02-26T10:39:04.177Z,89.50
2019-02-26T10:40:12.087Z,90.30
2019-02-26T10:41:21.144Z,89.30
2019-02-26T10:42:27.065Z,89.30
2019-02-26T10:43:33.388Z,87.40
2019-02-26T10:44:42.735Z,85.60
2019-02-26T10:45:50.574Z,83.60
2019-02-26T10:46:58.230Z,82.50
2019-02-26T10:48:04.781Z,83.30
2019-02-26T10:49:12.399Z,84.70
2019-02-26T10:50:20.579Z,84.10
2019-02-26T10:51:27.219Z,83.30
2019-02-26T10:52:33.549Z,83.80
2019-02-26T10:53:39.818Z,83.40
2019-02-26T10:54:46.589Z,83.70
2019-02-26T10:55:52.891Z,82.30
2019-02-26T10:57:00.444Z,80.90
2019-02-26T10:58:10.461Z,81.40
2019-02-26T10:59:18.800Z,82.20
2019-02-26T11:00:25.968Z,82.80
2019-02-26T11:01:33.714Z,83.20
2019-02-26T11:02:46.012Z,82.30
2019-02-26T11:03:52.831Z,81.00
2019-02-26T11:04:59.176Z,80.10
2019-02-26T11:06:07.297Z,78.30
2019-02-26T11:07:14.266Z,77.90
2019-02-26T11:08:24.749Z,76.80
2019-02-26T11:09:31.891Z,75.40
2019-02-26T11:10:41.375Z,77.20
2019-02-26T11:11:45.590Z,78.00
2019-02-26T11:12:53.626Z,75.20
2019-02-26T11:13:59.628Z,75.30
2019-02-26T11:15:06.797Z,74.50
2019-02-26T11:16:17.078Z,73.90
2019-02-26T11:17:23.676Z,72.30
2019-02-26T11:18:29.933Z,69.50
2019-02-26T11:19:38.851Z,68.90
2019-02-26T11:20:45.817Z,71.40
2019-02-26T11:21:55.388Z,71.60
2019-02-26T11:22:58.888Z,70.00
2019-02-26T11:24:06.091Z,68.70
2019-02-26T11:25:15.812Z,68.90
2019-02-26T11:26:21.861Z,70.30
2019-02-26T11:27:28.144Z,67.20
2019-02-26T11:28:38.058Z,63.50
2019-02-26T11:29:42.279Z,61.60
2019-02-26T11:30:49.742Z,58.80
2019-02-26T11:31:56.125Z,56.60
2019-02-26T11:33:04.738Z,54.00
2019-02-26T11:34:11.253Z,52.40
2019-02-26T11:35:19.568Z,50.20
2019-02-26T11:36:25.426Z,49.00
2019-02-26T11:37:32.061Z,52.60
2019-02-26T11:38:41.613Z,54.20
2019-02-26T11:39:46.083Z,56.80
2019-02-26T11:40:52.263Z,59.30
2019-02-26T11:42:00.725Z,62.50
2019-02-26T11:43:11.512Z,65.50
2019-02-26T11:44:18.897Z,67.70
2019-02-26T11:45:21.652Z,70.90
2019-02-26T11:46:29.894Z,72.90
2019-02-26T11:47:37.383Z,73.30
2019-02-26T11:48:45.667Z,73.70
2019-02-26T11:49:51.811Z,74.30
2019-02-26T11:51:00.800Z,75.20
2019-02-26T11:52:05.966Z,75.30
2019-02-26T11:53:12.214Z,75.70
2019-02-26T11:54:17.934Z,75.90
2019-02-26T11:55:26.195Z,76.90
2019-02-26T11:56:31.552Z,76.10
2019-02-26T11:57:39.865Z,75.00
2019-02-26T11:58:45.526Z,74.20
2019-02-26T11:59:51.710Z,74.50
2019-02-26T12:00:59.567Z,73.30
2019-02-26T12:02:07.663Z,72.40
2019-02-26T12:03:14.332Z,71.20
2019-02-26T12:04:20.543Z,70.60
2019-02-26T12:05:31.432Z,68.50
2019-02-26T12:06:33.884Z,68.50
2019-02-26T12:07:40.207Z,67.80
2019-02-26T12:08:47.353Z,64.70
2019-02-26T12:09:55.538Z,60.80
2019-02-26T12:11:04.049Z,58.30
2019-02-26T12:12:11.602Z,58.00
2019-02-26T12:13:19.948Z,58.10
2019-02-26T12:14:27.418Z,58.70
2019-02-26T12:15:36.291Z,58.00
2019-02-26T12:16:41.725Z,56.50
2019-02-26T12:17:51.765Z,55.10
2019-02-26T12:18:58.775Z,54.20
2019-02-26T12:20:09.237Z,52.80
2019-02-26T12:21:15.486Z,51.90
2019-02-26T12:22:22.751Z,52.00
2019-02-26T12:23:29.485Z,53.30
2019-02-26T12:24:36.234Z,52.70
2019-02-26T12:25:42.428Z,51.00
2019-02-26T12:26:49.984Z,51.80
2019-02-26T12:27:56.033Z,52.80
2019-02-26T12:29:04.317Z,54.90
2019-02-26T12:30:15.834Z,58.90
2019-02-26T12:31:21.887Z,61.50
2019-02-26T12:32:29.622Z,64.00
2019-02-26T12:33:35.846Z,63.80
2019-02-26T12:34:44.628Z,60.50
2019-02-26T12:35:50.650Z,58.20
2019-02-26T12:36:59.629Z,57.10
2019-02-26T12:38:17.517Z,57.30
2019-02-26T12:39:12.490Z,58.70
2019-02-26T12:40:19.345Z,59.50
2019-02-26T12:41:26.147Z,60.20
2019-02-26T12:42:32.315Z,61.20
2019-02-26T12:43:42.647Z,62.80
2019-02-26T12:44:46.649Z,64.30
2019-02-26T12:45:56.069Z,65.90
2019-02-26T12:47:00.606Z,65.70
2019-02-26T12:48:09.863Z,65.20
2019-02-26T12:49:16.050Z,64.90
2019-02-26T12:50:26.067Z,63.80
2019-02-26T12:51:31.820Z,64.20
2019-02-26T12:52:37.463Z,65.10
2019-02-26T12:53:49.189Z,64.30
2019-02-26T12:54:54.943Z,62.90
2019-02-26T12:56:03.206Z,60.60
2019-02-26T12:57:09.907Z,60.50
2019-02-26T12:58:18.673Z,61.60
2019-02-26T12:59:24.039Z,63.00
2019-02-26T13:00:31.036Z,62.20
2019-02-26T13:01:39.789Z,62.90
2019-02-26T13:02:45.742Z,62.20
2019-02-26T13:03:54.945Z,63.00
2019-02-26T13:05:00.877Z,63.80
2019-02-26T13:06:09.955Z,63.50
2019-02-26T13:07:15.190Z,64.10
2019-02-26T13:08:24.160Z,64.10
2019-02-26T13:09:29.138Z,64.40
2019-02-26T13:10:35.574Z,64.90
2019-02-26T13:12:00.257Z,65.00
2019-02-26T13:12:53.870Z,65.40
2019-02-26T13:13:59.073Z,64.80
2019-02-26T13:15:09.332Z,65.60
2019-02-26T13:16:13.184Z,66.30
2019-02-26T13:17:21.019Z,67.00
2019-02-26T13:18:27.426Z,68.10
2019-02-26T13:19:36.821Z,67.40
2019-02-26T13:20:40.838Z,66.70
2019-02-26T13:21:47.089Z,67.40
2019-02-26T13:22:56.515Z,66.10
2019-02-26T13:24:11.523Z,64.60
2019-02-26T13:25:15.059Z,64.40
2019-02-26T13:26:19.716Z,65.70
2019-02-26T13:27:24.738Z,64.00
2019-02-26T13:28:31.772Z,59.60
2019-02-26T13:29:42.438Z,57.50
2019-02-26T13:30:46.470Z,55.90
2019-02-26T13:31:56.521Z,54.00
2019-02-26T13:33:04.234Z,52.50
2019-02-26T13:34:13.881Z,51.50
2019-02-26T13:35:16.099Z,50.80
2019-02-26T13:36:22.547Z,48.20
2019-02-26T13:37:32.442Z,49.40
2019-02-26T13:38:44.710Z,51.90
2019-02-26T13:39:45.546Z,51.20
2019-02-26T13:40:51.973Z,49.80
2019-02-26T13:42:03.689Z,50.30
2019-02-26T13:43:08.451Z,50.00
2019-02-26T13:44:14.741Z,49.80
2019-02-26T13:45:22.045Z,48.50
2019-02-26T13:46:28.559Z,47.80
2019-02-26T13:47:34.767Z,47.50
2019-02-26T13:48:41.927Z,47.80
2019-02-26T13:49:48.138Z,48.80
2019-02-26T13:50:54.564Z,48.80
2019-02-26T13:52:01.006Z,48.50
2019-02-26T13:53:07.294Z,49.40
2019-02-26T13:54:13.120Z,52.30
2019-02-26T13:55:18.874Z,54.30
2019-02-26T13:56:25.495Z,56.10
2019-02-26T13:57:31.722Z,57.90
2019-02-26T13:58:37.935Z,59.20
2019-02-26T13:59:44.260Z,60.60
2019-02-26T14:00:50.493Z,61.10
2019-02-26T14:01:56.636Z,62.10
2019-02-26T14:03:04.164Z,62.00
2019-02-26T14:04:10.550Z,62.10
2019-02-26T14:05:17.308Z,61.50
2019-02-26T14:06:23.914Z,60.70
2019-02-26T14:07:29.902Z,61.10
2019-02-26T14:08:36.433Z,60.10
2019-02-26T14:09:42.808Z,61.50
2019-02-26T14:10:48.924Z,61.10
2019-02-26T14:11:55.194Z,60.40
2019-02-26T14:13:01.165Z,59.90
2019-02-26T14:14:07.321Z,60.40
2019-02-26T14:15:16.631Z,61.20
2019-02-26T14:16:23.117Z,61.10
2019-02-26T14:17:29.254Z,60.80
2019-02-26T14:18:35.414Z,59.70
2019-02-26T14:19:41.791Z,57.90
2019-02-26T14:20:47.749Z,56.80
2019-02-26T14:21:53.914Z,56.50
2019-02-26T14:23:00.066Z,56.80
2019-02-26T14:24:06.242Z,57.10
2019-02-26T14:25:12.710Z,57.60
2019-02-26T14:26:18.966Z,57.50
2019-02-26T14:27:25.249Z,58.20
2019-02-26T14:28:31.531Z,58.60
2019-02-26T14:29:37.737Z,59.60
2019-02-26T14:30:44.157Z,60.30
2019-02-26T14:31:50.148Z,61.00
2019-02-26T14:32:57.127Z,61.80